Time;durP1;ratioP1;P1;durP2;ratioP2;P2;SDS_P1;SDS_P2;PMS_P1;PMS_P2;Temp;Humidity;BMP_temperature;BMP_pressure;BME280_temperature;BME280_humidity;BME280_pressure;Samples;Min_cycle;Max_cycle;Signal;HPM_P1;HPM_P2
2023/10/13 00:00:47;;;;;;;10.50;4.90;;;;;;;14.42;91.10;96813.39;108869;1272;22527;-76
2023/10/13 00:03:42;;;;;;;9.60;5.40;;;;;;;14.35;91.55;96809.70;108847;1272;22531;-75
2023/10/13 00:06:16;;;;;;;10.40;5.40;;;;;;;14.32;91.77;96810.91;108860;1272;47245;-75
2023/10/13 00:08:48;;;;;;;9.90;5.40;;;;;;;14.29;91.99;96812.35;108930;1272;25482;-75
2023/10/13 00:11:21;;;;;;;8.90;5.40;;;;;;;14.28;92.38;96804.77;108920;1266;22467;-75
2023/10/13 00:13:54;;;;;;;16.10;6.00;;;;;;;14.25;92.53;96801.82;108867;1270;23275;-75
2023/10/13 00:16:30;;;;;;;10.70;5.50;;;;;;;14.23;92.73;96799.64;108925;1266;29051;-75
2023/10/13 00:19:05;;;;;;;10.90;5.20;;;;;;;14.20;92.87;96801.42;108911;1272;24118;-75
2023/10/13 00:21:37;;;;;;;13.90;5.50;;;;;;;14.18;93.07;96799.65;108889;1272;22554;-75
2023/10/13 00:24:14;;;;;;;10.20;5.30;;;;;;;14.17;93.31;96794.27;108845;1250;22524;-75
2023/10/13 00:26:45;;;;;;;12.70;6.00;;;;;;;14.18;93.48;96790.93;108764;1272;36246;-76
2023/10/13 00:29:17;;;;;;;7.80;4.80;;;;;;;14.16;93.60;96791.22;108855;1272;22525;-75
2023/10/13 00:31:49;;;;;;;11.00;5.10;;;;;;;14.16;93.73;96796.55;108864;1272;22529;-75
2023/10/13 00:34:25;;;;;;;10.80;5.70;;;;;;;14.17;93.80;96793.44;108915;1272;24196;-75
2023/10/13 00:39:45;;;;;;;9.10;4.80;;;;;;;14.19;94.16;96783.54;108916;1266;22519;-75
2023/10/13 00:42:25;;;;;;;8.60;4.80;;;;;;;14.19;94.05;96780.05;108896;1272;24541;-75
2023/10/13 00:44:58;;;;;;;11.60;5.40;;;;;;;14.17;94.09;96777.88;108881;1272;22518;-75
2023/10/13 00:47:48;;;;;;;12.90;5.30;;;;;;;14.16;94.29;96774.44;108789;1272;46452;-75
2023/10/13 00:50:21;;;;;;;13.20;5.00;;;;;;;14.14;94.41;96769.56;108913;1272;22517;-75
2023/10/13 00:52:52;;;;;;;9.30;5.00;;;;;;;14.13;94.67;96773.00;108847;1266;24171;-75
2023/10/13 00:55:26;;;;;;;10.00;5.70;;;;;;;14.11;94.78;96776.57;108820;1272;84416;-75
2023/10/13 00:58:02;;;;;;;10.70;5.40;;;;;;;14.12;94.84;96772.59;108763;1272;22566;-75
2023/10/13 01:00:46;;;;;;;8.90;5.50;;;;;;;14.11;94.92;96774.05;108863;1272;22519;-76
2023/10/13 01:03:25;;;;;;;11.30;5.20;;;;;;;14.09;94.97;96770.84;108907;1272;22576;-76
2023/10/13 01:05:58;;;;;;;10.40;5.10;;;;;;;14.10;95.16;96777.27;108750;1272;31704;-76
2023/10/13 01:08:37;;;;;;;7.50;4.60;;;;;;;14.11;95.32;96773.58;108927;1272;22522;-75
2023/10/13 01:11:13;;;;;;;10.30;5.10;;;;;;;14.10;95.30;96770.27;108851;1272;22530;-75
2023/10/13 01:13:47;;;;;;;15.60;5.50;;;;;;;14.10;95.45;96769.22;108811;1272;22535;-76
2023/10/13 01:16:21;;;;;;;11.00;5.30;;;;;;;14.10;95.47;96766.83;108852;1272;88557;-75
2023/10/13 01:18:52;;;;;;;8.50;4.70;;;;;;;14.10;95.48;96764.60;108857;1272;22704;-75
2023/10/13 01:21:27;;;;;;;9.70;5.20;;;;;;;14.09;95.65;96762.14;108869;1251;22556;-76
2023/10/13 01:23:58;;;;;;;9.90;5.30;;;;;;;14.09;95.67;96759.45;108874;1270;23753;-75
2023/10/13 01:26:38;;;;;;;8.80;5.20;;;;;;;14.07;95.64;96758.98;108715;1267;108131;-76
2023/10/13 01:29:14;;;;;;;12.70;5.60;;;;;;;14.06;95.65;96758.45;108847;1272;22517;-75
2023/10/13 01:31:47;;;;;;;11.00;5.10;;;;;;;14.05;95.75;96757.31;108894;1270;22510;-75
2023/10/13 01:34:21;;;;;;;10.00;5.00;;;;;;;14.03;95.75;96758.36;108880;1272;22509;-75
2023/10/13 01:36:54;;;;;;;8.50;5.10;;;;;;;14.02;95.93;96761.27;108922;1272;30216;-75
2023/10/13 01:39:28;;;;;;;9.40;4.90;;;;;;;14.00;95.96;96758.48;108857;1272;24220;-75
2023/10/13 01:42:02;;;;;;;9.10;4.90;;;;;;;13.97;95.85;96754.44;108943;1272;25268;-75
2023/10/13 01:44:34;;;;;;;10.60;5.30;;;;;;;13.95;95.77;96757.83;108875;1272;22694;-75
2023/10/13 01:47:06;;;;;;;11.70;5.70;;;;;;;13.93;95.86;96759.20;107476;1269;1828592;-75
2023/10/13 01:49:41;;;;;;;11.30;5.90;;;;;;;13.89;95.88;96756.13;108870;1250;22560;-75
2023/10/13 01:52:16;;;;;;;10.80;5.10;;;;;;;13.87;95.97;96752.88;108902;1266;24161;-75
2023/10/13 01:54:49;;;;;;;10.40;4.80;;;;;;;13.84;96.03;96752.91;108897;1272;22647;-75
2023/10/13 01:57:24;;;;;;;8.80;5.40;;;;;;;13.82;95.97;96753.98;108762;1270;55927;-76
2023/10/13 02:00:03;;;;;;;7.40;4.80;;;;;;;13.79;96.13;96744.59;108915;1266;22517;-76
2023/10/13 02:02:35;;;;;;;10.30;5.00;;;;;;;13.79;96.25;96743.63;108849;1272;23299;-75
2023/10/13 02:05:08;;;;;;;10.90;5.50;;;;;;;13.78;96.19;96743.31;108890;1272;22503;-75
2023/10/13 02:07:45;;;;;;;9.40;5.20;;;;;;;13.75;96.09;96746.48;109019;1269;22704;-75
2023/10/13 02:10:16;;;;;;;9.90;5.20;;;;;;;13.68;96.28;96748.04;109076;1269;22533;-75
2023/10/13 02:12:48;;;;;;;14.70;5.10;;;;;;;13.69;96.27;96754.32;109072;1269;25028;-75
2023/10/13 02:15:22;;;;;;;8.80;5.00;;;;;;;13.68;96.35;96748.75;109082;1271;53240;-75
2023/10/13 02:17:54;;;;;;;10.50;5.50;;;;;;;13.65;96.43;96744.00;109143;1267;22484;-75
2023/10/13 02:20:30;;;;;;;11.00;5.50;;;;;;;13.64;96.64;96746.61;109092;1272;22502;-75
2023/10/13 02:23:10;;;;;;;8.60;5.30;;;;;;;13.63;96.61;96747.96;109048;1271;22616;-75
2023/10/13 02:25:45;;;;;;;8.90;5.40;;;;;;;13.60;96.59;96744.30;108978;1272;55338;-75
2023/10/13 02:28:21;;;;;;;10.70;5.00;;;;;;;13.57;96.59;96746.11;108813;1269;24266;-75
2023/10/13 02:30:53;;;;;;;8.70;5.10;;;;;;;13.54;96.55;96739.77;108873;1272;22510;-75
2023/10/13 02:33:29;;;;;;;12.30;5.30;;;;;;;13.49;96.74;96741.02;108947;1272;24157;-75
2023/10/13 02:36:04;;;;;;;10.40;5.40;;;;;;;13.46;96.76;96737.13;108931;1272;22626;-75
2023/10/13 02:38:45;;;;;;;11.60;5.90;;;;;;;13.44;96.96;96738.45;108970;1271;22690;-75
2023/10/13 02:41:25;;;;;;;13.20;6.30;;;;;;;13.40;96.90;96738.59;108974;1262;23960;-76
2023/10/13 02:43:57;;;;;;;10.60;6.00;;;;;;;13.38;97.18;96735.06;108988;1271;22564;-75
2023/10/13 02:46:31;;;;;;;9.00;5.30;;;;;;;13.36;97.16;96733.41;108952;1269;28579;-75
2023/10/13 02:49:10;;;;;;;12.90;5.90;;;;;;;13.34;97.30;96728.43;109006;1266;24210;-75
2023/10/13 02:51:44;;;;;;;10.30;5.60;;;;;;;13.33;97.46;96730.27;108962;1269;22532;-75
2023/10/13 02:54:19;;;;;;;10.80;5.90;;;;;;;13.31;97.44;96729.40;108944;1272;24339;-75
2023/10/13 02:56:56;;;;;;;8.90;6.20;;;;;;;13.33;97.77;96729.52;108856;1272;40188;-75
2023/10/13 02:59:39;;;;;;;10.60;5.80;;;;;;;13.39;97.99;96731.05;108946;1272;23858;-76
2023/10/13 03:02:25;;;;;;;10.50;5.80;;;;;;;13.46;98.31;96722.33;108896;1271;22547;-76
2023/10/13 03:05:08;;;;;;;12.00;6.20;;;;;;;13.55;98.44;96721.48;108877;1269;22516;-76
2023/10/13 03:07:43;;;;;;;10.90;6.20;;;;;;;13.63;98.24;96724.05;108960;1271;24297;-76
2023/10/13 03:10:18;;;;;;;11.00;6.40;;;;;;;13.68;98.30;96726.38;108951;1269;22622;-76
2023/10/13 03:12:51;;;;;;;10.90;6.20;;;;;;;13.70;98.20;96729.48;108946;1271;22555;-76
2023/10/13 03:15:30;;;;;;;9.90;6.40;;;;;;;13.74;98.08;96732.33;108899;1272;23790;-76
2023/10/13 03:18:03;;;;;;;11.10;5.90;;;;;;;13.76;98.06;96731.48;108963;1271;22578;-76
2023/10/13 03:20:35;;;;;;;10.20;5.90;;;;;;;13.75;97.95;96732.09;108966;1272;22511;-76
2023/10/13 03:23:09;;;;;;;13.90;6.20;;;;;;;13.73;97.96;96738.75;109010;1269;22523;-75
2023/10/13 03:25:43;;;;;;;12.20;5.50;;;;;;;13.71;97.93;96735.10;108734;1263;100476;-75
2023/10/13 03:28:19;;;;;;;9.10;6.10;;;;;;;13.70;97.84;96731.08;108870;1265;22705;-75
2023/10/13 03:30:52;;;;;;;10.20;5.40;;;;;;;13.68;97.90;96731.05;108942;1272;22509;-75
2023/10/13 03:33:26;;;;;;;11.70;6.10;;;;;;;13.68;97.90;96727.38;108924;1269;22522;-75
2023/10/13 03:36:05;;;;;;;9.60;6.20;;;;;;;13.66;97.90;96726.19;108863;1267;26064;-76
2023/10/13 03:38:38;;;;;;;11.50;5.90;;;;;;;13.65;97.96;96720.88;108912;1271;23516;-75
2023/10/13 03:41:20;;;;;;;10.40;6.30;;;;;;;13.65;98.11;96722.31;108979;1272;22813;-76
2023/10/13 03:43:52;;;;;;;13.10;6.60;;;;;;;13.66;98.17;96720.70;108909;1271;22451;-75
2023/10/13 03:46:23;;;;;;;10.70;6.50;;;;;;;13.68;98.42;96721.77;108890;1266;102965;-75
2023/10/13 03:48:59;;;;;;;10.90;7.20;;;;;;;13.71;98.56;96719.02;108961;1271;22511;-76
2023/10/13 03:51:32;;;;;;;12.40;7.90;;;;;;;13.76;98.62;96717.84;108904;1266;22554;-76
2023/10/13 03:54:07;;;;;;;15.20;7.50;;;;;;;13.82;98.77;96725.14;108960;1269;25406;-76
2023/10/13 03:56:44;;;;;;;14.30;7.70;;;;;;;13.86;98.83;96731.17;108863;1271;37811;-76
2023/10/13 03:59:20;;;;;;;13.60;8.30;;;;;;;13.92;98.85;96736.77;108948;1266;22529;-75
2023/10/13 04:01:59;;;;;;;12.10;8.10;;;;;;;13.97;98.92;96735.66;108954;1269;22492;-76
2023/10/13 04:04:43;;;;;;;11.70;8.40;;;;;;;14.01;98.78;96731.69;108937;1272;22526;-76
2023/10/13 04:07:38;;;;;;;13.10;7.70;;;;;;;14.06;98.89;96740.29;108865;1271;52680;-75
2023/10/13 04:16:34;;;;;;;11.40;7.00;;;;;;;14.07;98.57;96736.70;108627;1275;86657;-75
2023/10/13 04:19:19;;;;;;;12.30;6.70;;;;;;;14.07;98.45;96740.89;108746;1275;22574;-75
2023/10/13 04:22:14;;;;;;;11.20;6.80;;;;;;;14.08;98.44;96743.25;108893;1272;22589;-75
2023/10/13 04:27:54;;;;;;;15.00;6.80;;;;;;;14.04;98.42;96751.10;108839;1263;24269;-75
2023/10/13 04:30:32;;;;;;;10.90;7.00;;;;;;;14.07;98.49;96754.81;108955;1266;25169;-75
2023/10/13 04:33:35;;;;;;;10.90;6.70;;;;;;;14.07;98.46;96751.25;108999;1257;24246;-75
2023/10/13 04:36:21;;;;;;;11.80;7.40;;;;;;;14.07;98.48;96745.91;108957;1271;69987;-75
2023/10/13 04:38:59;;;;;;;16.70;7.50;;;;;;;14.07;98.41;96744.63;109005;1257;23796;-75
2023/10/13 04:41:37;;;;;;;12.20;7.60;;;;;;;14.06;98.43;96741.23;108916;1266;22519;-76
2023/10/13 04:47:21;;;;;;;12.70;7.30;;;;;;;14.04;98.55;96752.16;108998;1271;26271;-76
2023/10/13 04:49:53;;;;;;;12.90;7.40;;;;;;;14.03;98.75;96757.51;108895;1269;24203;-76
2023/10/13 04:58:14;;;;;;;12.10;7.50;;;;;;;14.04;98.98;96753.66;108876;1266;22537;-76
2023/10/13 05:01:16;;;;;;;12.00;6.70;;;;;;;14.03;99.06;96758.37;108918;1272;22544;-76
2023/10/13 05:04:21;;;;;;;11.80;7.30;;;;;;;14.03;99.17;96763.31;108929;1269;24647;-76
2023/10/13 05:49:53;;;;;;;10.10;5.70;;;;;;;14.16;100.00;96782.38;108829;1273;24232;-76
2023/10/13 06:29:19;;;;;;;6.40;4.40;;;;;;;14.34;100.00;96807.98;108875;1267;23700;-76
2023/10/13 06:31:51;;;;;;;6.20;4.60;;;;;;;14.33;100.00;96810.58;108892;1272;25482;-76
2023/10/13 06:34:37;;;;;;;6.80;4.90;;;;;;;14.33;100.00;96811.36;108967;1272;22578;-76
2023/10/13 06:37:24;;;;;;;7.90;4.50;;;;;;;14.32;100.00;96808.69;108923;1272;39164;-76
2023/10/13 06:39:56;;;;;;;6.60;4.60;;;;;;;14.30;100.00;96814.54;108940;1270;25418;-76
2023/10/13 06:42:34;;;;;;;7.70;5.00;;;;;;;14.30;100.00;96815.60;108971;1270;22528;-76
2023/10/13 06:45:17;;;;;;;8.30;4.60;;;;;;;14.29;100.00;96817.66;108939;1267;24875;-76
2023/10/13 06:47:53;;;;;;;7.70;5.00;;;;;;;14.27;100.00;96817.52;108865;1267;81632;-76
2023/10/13 06:50:25;;;;;;;6.80;4.90;;;;;;;14.27;100.00;96822.48;108996;1265;23088;-76
2023/10/13 06:52:57;;;;;;;6.60;4.70;;;;;;;14.28;100.00;96823.42;108910;1272;22569;-76
2023/10/13 06:55:34;;;;;;;6.20;4.50;;;;;;;14.30;100.00;96823.98;108983;1272;22519;-76
2023/10/13 06:58:07;;;;;;;6.80;4.20;;;;;;;14.34;100.00;96825.65;109011;1272;22484;-75
2023/10/13 07:00:41;;;;;;;6.60;4.30;;;;;;;14.38;100.00;96826.91;108956;1271;22529;-76
2023/10/13 07:03:21;;;;;;;6.50;4.90;;;;;;;14.42;100.00;96826.83;108912;1272;22509;-75
2023/10/13 07:05:53;;;;;;;6.70;4.00;;;;;;;14.47;100.00;96830.01;108919;1269;53072;-76
2023/10/13 07:08:25;;;;;;;6.40;4.00;;;;;;;14.52;100.00;96829.54;109107;1269;22542;-77
2023/10/13 07:11:05;;;;;;;6.70;3.70;;;;;;;14.57;100.00;96832.00;109101;1272;22545;-76
2023/10/13 07:13:38;;;;;;;7.10;4.30;;;;;;;14.63;100.00;96834.13;109129;1269;22650;-76
2023/10/13 07:16:16;;;;;;;6.80;4.60;;;;;;;14.65;100.00;96827.25;109111;1262;56803;-77
2023/10/13 07:18:54;;;;;;;6.60;4.40;;;;;;;14.72;100.00;96833.34;109172;1270;22561;-76
2023/10/13 07:21:31;;;;;;;7.90;4.10;;;;;;;14.75;100.00;96835.14;109109;1270;23265;-76
2023/10/13 07:24:08;;;;;;;6.90;3.70;;;;;;;14.77;100.00;96836.46;109092;1260;24307;-76
2023/10/13 07:26:45;;;;;;;8.00;4.30;;;;;;;14.81;100.00;96840.11;109015;1269;74861;-76
2023/10/13 07:29:17;;;;;;;5.50;4.00;;;;;;;14.79;100.00;96836.63;109008;1267;22518;-76
2023/10/13 07:31:51;;;;;;;7.10;4.10;;;;;;;14.83;100.00;96842.08;109046;1267;22562;-77
2023/10/13 07:34:26;;;;;;;8.70;4.10;;;;;;;14.85;100.00;96840.11;109063;1269;22526;-76
2023/10/13 07:36:59;;;;;;;4.40;3.90;;;;;;;14.87;100.00;96842.15;108838;1271;255377;-76
2023/10/13 07:39:34;;;;;;;7.30;3.70;;;;;;;14.89;100.00;96839.06;109049;1274;22554;-77
2023/10/13 07:42:08;;;;;;;5.60;4.00;;;;;;;14.91;100.00;96842.55;109122;1273;22543;-76
2023/10/13 07:44:47;;;;;;;7.80;4.10;;;;;;;14.93;100.00;96846.70;109075;1269;23790;-76
2023/10/13 07:47:20;;;;;;;7.50;4.80;;;;;;;14.94;100.00;96847.64;108987;1267;68682;-76
2023/10/13 07:49:52;;;;;;;7.10;3.90;;;;;;;14.96;100.00;96849.58;108985;1270;22483;-76
2023/10/13 07:52:58;;;;;;;8.10;4.60;;;;;;;14.97;100.00;96845.52;109063;1267;22540;-76
2023/10/13 07:55:38;;;;;;;7.80;4.30;;;;;;;15.00;100.00;96843.48;109034;1272;23673;-76
2023/10/13 07:58:24;;;;;;;5.90;4.30;;;;;;;15.04;100.00;96839.42;109117;1270;23796;-76
2023/10/13 08:01:07;;;;;;;6.20;4.60;;;;;;;15.11;100.00;96839.44;109056;1272;22565;-76
2023/10/13 08:04:04;;;;;;;6.60;4.30;;;;;;;15.20;100.00;96840.54;109000;1272;22534;-76
2023/10/13 08:06:36;;;;;;;9.50;4.60;;;;;;;15.32;100.00;96842.93;108755;1267;121125;-77
2023/10/13 08:12:44;;;;;;;9.80;4.40;;;;;;;15.60;100.00;96835.45;105357;1305;545114;-77
2023/10/13 08:15:31;;;;;;;6.60;4.80;;;;;;;15.72;100.00;96834.73;108723;1276;22757;-76
2023/10/13 08:18:17;;;;;;;8.30;4.30;;;;;;;15.87;100.00;96833.45;108596;1277;41132;-77
2023/10/13 08:21:03;;;;;;;6.80;4.50;;;;;;;16.01;99.87;96829.76;108451;1278;23617;-76
2023/10/13 08:23:57;;;;;;;6.20;4.20;;;;;;;16.14;99.53;96831.95;108829;1269;22527;-77
2023/10/13 08:26:56;;;;;;;9.80;5.00;;;;;;;16.23;99.07;96832.52;104940;1266;5083634;-77
2023/10/13 08:32:36;;;;;;;8.50;4.90;;;;;;;16.37;97.98;96833.03;108958;1273;24301;-75
2023/10/13 08:35:23;;;;;;;7.20;4.70;;;;;;;16.45;97.85;96833.83;108912;1273;22513;-76
2023/10/13 08:38:04;;;;;;;8.20;5.30;;;;;;;16.54;97.68;96831.16;106237;1266;3651469;-76
2023/10/13 08:41:28;;;;;;;11.00;5.40;;;;;;;16.69;97.57;96833.89;108964;1273;25246;-77
2023/10/13 08:43:51;;;;;;;8.20;4.60;;;;;;;16.94;97.70;96837.13;108940;1270;22521;-78
2023/10/13 08:46:30;;;;;;;7.00;4.90;;;;;;;17.21;97.72;96838.83;108933;1270;25407;-78
2023/10/13 08:49:17;;;;;;;8.90;4.10;;;;;;;17.37;96.55;96838.17;108990;1273;23327;-78
2023/10/13 08:52:05;;;;;;;9.00;4.80;;;;;;;17.47;96.06;96836.77;108976;1273;22545;-79
2023/10/13 08:55:02;;;;;;;8.20;4.80;;;;;;;17.52;95.28;96838.44;108904;1266;22523;-80
2023/10/13 08:57:37;;;;;;;7.10;4.30;;;;;;;17.49;94.63;96841.01;109053;1273;22521;-78
2023/10/13 09:00:28;;;;;;;8.10;4.50;;;;;;;17.45;94.46;96837.48;109025;1266;22480;-78
2023/10/13 09:03:38;;;;;;;7.40;4.30;;;;;;;17.47;94.40;96835.48;108981;1266;22904;-78
2023/10/13 09:06:37;;;;;;;8.70;5.10;;;;;;;17.60;94.75;96830.21;108846;1266;145010;-77
2023/10/13 09:12:35;;;;;;;9.40;4.50;;;;;;;17.92;93.94;96836.33;108956;1250;22545;-78
2023/10/13 09:15:19;;;;;;;9.10;4.40;;;;;;;17.99;93.77;96832.36;108925;1266;23733;-78
2023/10/13 09:18:04;;;;;;;7.50;4.70;;;;;;;18.11;93.44;96835.19;108906;1270;54516;-78
2023/10/13 09:24:16;;;;;;;6.80;4.40;;;;;;;18.27;93.12;96827.65;108995;1266;22657;-78
2023/10/13 09:26:50;;;;;;;;;;;;;;;18.59;93.39;96827.16;108941;1273;36130;-78
2023/10/13 09:29:25;;;;;;;8.70;4.30;;;;;;;18.94;93.23;96828.45;108949;1273;23327;-78
2023/10/13 09:32:11;;;;;;;9.30;4.30;;;;;;;19.24;92.09;96832.70;108916;1268;22517;-78
2023/10/13 09:34:53;;;;;;;8.50;4.30;;;;;;;19.41;91.16;96836.02;108903;1273;24244;-78
2023/10/13 09:37:37;;;;;;;9.20;4.40;;;;;;;19.55;90.88;96832.55;104768;1269;5470433;-78
2023/10/13 09:40:27;;;;;;;10.20;4.40;;;;;;;19.69;90.25;96824.14;108875;1273;22510;-78
2023/10/13 09:43:14;;;;;;;8.60;4.40;;;;;;;19.73;88.92;96819.36;108999;1269;22539;-78
2023/10/13 09:46:15;;;;;;;9.50;4.60;;;;;;;19.82;88.86;96810.76;109007;1272;25917;-78
2023/10/13 09:52:00;;;;;;;8.20;4.20;;;;;;;20.17;87.33;96796.63;108980;1267;23692;-78
2023/10/13 09:55:01;;;;;;;8.60;4.50;;;;;;;20.00;86.18;96800.53;108973;1266;24198;-78
2023/10/13 09:57:57;;;;;;;9.10;4.70;;;;;;;19.93;85.31;96792.05;108864;1269;44811;-77
2023/10/13 10:00:49;;;;;;;7.50;4.10;;;;;;;19.62;84.32;96794.30;108900;1267;22656;-76
2023/10/13 10:03:39;;;;;;;8.90;4.10;;;;;;;19.35;84.00;96789.73;108860;1272;22532;-76
2023/10/13 10:06:27;;;;;;;6.80;4.60;;;;;;;19.15;84.90;96784.02;108884;1266;22657;-77
2023/10/13 10:09:21;;;;;;;6.90;4.40;;;;;;;19.48;86.17;96787.33;108920;1266;22538;-77
2023/10/13 10:12:25;;;;;;;7.30;4.30;;;;;;;19.78;85.73;96787.70;108877;1269;25515;-76
2023/10/13 10:15:20;;;;;;;9.60;4.60;;;;;;;19.95;85.06;96781.84;108929;1272;22492;-76
2023/10/13 10:17:53;;;;;;;7.60;4.20;;;;;;;20.18;84.90;96782.64;108930;1272;47397;-76
2023/10/13 10:20:42;;;;;;;7.50;4.60;;;;;;;20.35;84.62;96778.58;108916;1266;25162;-76
2023/10/13 10:23:22;;;;;;;9.50;4.10;;;;;;;20.60;84.07;96781.67;108908;1266;22681;-77
2023/10/13 10:26:04;;;;;;;7.90;3.90;;;;;;;20.77;83.33;96777.97;108878;1269;22557;-76
2023/10/13 10:28:41;;;;;;;7.70;4.50;;;;;;;20.85;82.67;96774.66;108858;1266;22530;-75
2023/10/13 10:31:19;;;;;;;6.70;3.80;;;;;;;20.86;81.57;96770.08;108696;1262;23266;-81
2023/10/13 10:33:51;;;;;;;10.10;4.30;;;;;;;20.95;81.23;96763.02;109381;1272;24179;-82
2023/10/13 10:36:34;;;;;;;8.00;3.60;;;;;;;21.06;80.78;96757.31;109253;1266;22524;-82
2023/10/13 10:39:06;;;;;;;6.40;3.80;;;;;;;21.16;80.30;96759.98;109146;1268;22575;-81
2023/10/13 10:41:44;;;;;;;8.20;3.60;;;;;;;21.02;78.54;96751.80;109273;1266;22521;-81
2023/10/13 10:44:22;;;;;;;7.20;3.80;;;;;;;20.89;78.37;96753.35;108896;1266;22898;-81
2023/10/13 10:46:57;;;;;;;6.30;3.90;;;;;;;20.91;77.96;96755.27;108873;1273;25920;-81
2023/10/13 10:49:30;;;;;;;7.10;3.90;;;;;;;20.92;77.20;96750.98;109136;1266;24220;-81
2023/10/13 10:52:03;;;;;;;6.40;3.90;;;;;;;20.87;76.78;96750.85;109132;1273;22527;-81
2023/10/13 10:54:35;;;;;;;5.60;3.40;;;;;;;20.85;76.16;96747.95;109131;1266;22522;-81
2023/10/13 10:57:12;;;;;;;7.30;3.80;;;;;;;20.94;76.61;96750.80;109047;1266;31066;-81
2023/10/13 10:59:43;;;;;;;5.60;3.60;;;;;;;20.96;75.78;96753.57;109115;1272;24220;-81
2023/10/13 11:02:25;;;;;;;7.00;3.90;;;;;;;20.97;75.93;96751.45;108874;1273;23820;-81
2023/10/13 11:04:57;;;;;;;9.00;3.90;;;;;;;21.03;75.76;96745.39;108886;1273;23716;-81
2023/10/13 11:07:29;;;;;;;7.30;4.00;;;;;;;21.05;75.38;96741.89;108865;1273;25945;-81
2023/10/13 11:10:17;;;;;;;6.10;3.90;;;;;;;21.08;75.49;96735.27;108914;1269;23521;-80
2023/10/13 11:13:11;;;;;;;9.00;3.70;;;;;;;20.98;74.03;96733.99;108914;1273;22510;-81
2023/10/13 11:15:46;;;;;;;7.30;3.80;;;;;;;20.96;74.11;96731.32;108870;1273;22550;-81
2023/10/13 11:18:33;;;;;;;7.50;3.60;;;;;;;20.99;74.30;96732.02;108931;1271;31965;-81
2023/10/13 11:21:11;;;;;;;6.50;3.70;;;;;;;21.04;73.94;96729.63;109004;1272;22609;-81
2023/10/13 11:23:42;;;;;;;9.30;4.00;;;;;;;20.99;73.36;96725.80;109000;1266;24186;-81
2023/10/13 11:26:14;;;;;;;6.10;3.60;;;;;;;20.99;73.45;96723.73;108978;1265;25345;-81
2023/10/13 11:28:55;;;;;;;6.90;3.60;;;;;;;20.95;72.47;96723.73;108989;1265;53437;-81
2023/10/13 11:31:29;;;;;;;10.90;3.70;;;;;;;20.81;72.13;96728.73;109002;1265;22829;-80
2023/10/13 11:34:02;;;;;;;7.40;4.00;;;;;;;20.64;72.38;96731.00;109039;1266;25428;-80
2023/10/13 11:36:35;;;;;;;6.80;3.90;;;;;;;20.70;73.01;96725.81;109024;1266;23852;-80
2023/10/13 11:39:07;;;;;;;7.60;3.70;;;;;;;20.86;73.55;96732.09;109026;1266;22520;-80
2023/10/13 11:41:50;;;;;;;6.80;4.20;;;;;;;20.92;73.05;96729.98;109090;1266;23927;-80
2023/10/13 11:44:30;;;;;;;7.60;4.20;;;;;;;20.87;73.09;96731.90;109012;1265;22546;-80
2023/10/13 11:49:48;;;;;;;7.50;4.20;;;;;;;21.09;73.42;96720.89;109082;1272;22526;-80
2023/10/13 11:52:26;;;;;;;6.90;3.70;;;;;;;21.15;73.10;96722.00;109103;1266;22524;-80
2023/10/13 11:54:57;;;;;;;6.50;3.30;;;;;;;21.24;73.31;96716.02;109188;1269;24193;-80
2023/10/13 11:57:28;;;;;;;6.20;3.60;;;;;;;21.34;73.06;96717.60;109015;1270;25297;-80
2023/10/13 12:00:24;;;;;;;5.80;3.40;;;;;;;21.45;73.23;96719.19;109083;1272;22514;-80
2023/10/13 12:06:06;;;;;;;6.20;3.30;;;;;;;21.18;71.90;96722.55;108415;1271;22513;-81
2023/10/13 12:08:49;;;;;;;9.80;4.40;;;;;;;21.01;71.73;96706.51;109092;1266;126468;-80
2023/10/13 12:11:32;;;;;;;5.00;3.60;;;;;;;20.94;71.88;96717.54;108934;1271;26004;-79
2023/10/13 12:14:11;;;;;;;6.40;3.20;;;;;;;20.97;72.31;96713.55;108932;1272;22662;-79
2023/10/13 12:16:48;;;;;;;6.40;3.70;;;;;;;21.02;72.33;96715.33;109000;1262;22521;-80
2023/10/13 12:19:23;;;;;;;6.70;4.00;;;;;;;21.01;72.31;96715.08;109020;1266;22524;-80
2023/10/13 12:21:55;;;;;;;7.80;3.40;;;;;;;21.13;73.00;96713.31;108873;1266;22612;-80
2023/10/13 12:24:39;;;;;;;5.70;3.60;;;;;;;21.25;72.41;96713.83;109048;1266;22517;-80
2023/10/13 12:27:23;;;;;;;5.80;3.00;;;;;;;21.40;72.75;96705.27;109087;1265;22565;-80
2023/10/13 12:29:58;;;;;;;6.40;3.30;;;;;;;21.60;72.71;96700.55;109156;1272;23848;-81
2023/10/13 12:32:34;;;;;;;4.90;2.80;;;;;;;21.71;72.00;96702.52;109254;1266;22595;-80
2023/10/13 12:35:27;;;;;;;4.90;3.00;;;;;;;21.72;71.54;96700.77;109257;1272;22538;-80
2023/10/13 12:38:05;;;;;;;8.10;3.40;;;;;;;21.68;71.24;96694.97;109250;1265;39174;-79
2023/10/13 12:49:17;;;;;;;5.60;3.40;;;;;;;22.07;70.79;96686.51;109034;1266;22718;-79
2023/10/13 12:51:51;;;;;;;4.60;3.10;;;;;;;22.03;70.49;96686.48;109018;1266;23912;-78
2023/10/13 12:54:27;;;;;;;7.10;2.90;;;;;;;22.05;70.54;96684.39;108989;1266;22524;-79
2023/10/13 12:56:59;;;;;;;5.10;3.20;;;;;;;22.07;69.84;96681.34;108989;1272;31368;-78
2023/10/13 12:59:30;;;;;;;5.00;3.20;;;;;;;22.03;69.80;96679.37;109026;1272;22553;-78
2023/10/13 13:02:06;;;;;;;5.20;3.10;;;;;;;22.02;69.60;96674.02;109004;1272;22525;-78
2023/10/13 13:04:38;;;;;;;7.00;3.00;;;;;;;21.99;69.85;96668.80;108903;1266;22538;-79
2023/10/13 13:07:17;;;;;;;5.80;3.20;;;;;;;22.05;70.27;96668.19;108903;1264;55832;-78
2023/10/13 13:09:50;;;;;;;8.00;3.70;;;;;;;22.05;70.03;96668.19;108990;1272;23983;-78
2023/10/13 13:12:30;;;;;;;7.30;3.20;;;;;;;22.01;70.07;96663.83;109021;1272;23874;-78
2023/10/13 13:15:08;;;;;;;9.40;3.30;;;;;;;21.90;69.87;96666.05;108938;1272;23856;-80
2023/10/13 13:17:47;;;;;;;8.20;3.40;;;;;;;21.82;70.43;96668.57;109105;1272;39152;-80
2023/10/13 13:20:27;;;;;;;7.00;3.40;;;;;;;21.84;69.98;96662.67;109112;1272;22549;-80
2023/10/13 13:23:02;;;;;;;7.10;3.50;;;;;;;21.91;69.78;96662.90;109149;1272;22520;-80
2023/10/13 13:25:38;;;;;;;4.50;3.10;;;;;;;21.95;69.30;96666.46;109147;1272;23270;-80
2023/10/13 13:28:15;;;;;;;7.60;3.80;;;;;;;22.02;69.21;96663.78;109108;1272;35797;-80
2023/10/13 13:30:50;;;;;;;6.70;3.30;;;;;;;22.00;68.30;96660.73;109204;1272;22987;-81
2023/10/13 13:33:24;;;;;;;7.30;3.40;;;;;;;21.91;68.03;96657.20;109032;1269;22564;-80
2023/10/13 13:35:59;;;;;;;6.20;3.10;;;;;;;21.95;68.45;96656.52;109089;1272;23808;-80
2023/10/13 13:38:31;;;;;;;4.40;3.10;;;;;;;22.04;68.49;96659.35;109186;1266;42724;-81
2023/10/13 13:41:09;;;;;;;8.30;3.30;;;;;;;22.13;68.84;96656.96;109247;1269;22510;-81
2023/10/13 13:43:54;;;;;;;6.10;3.60;;;;;;;22.20;68.67;96655.19;109157;1266;23314;-81
2023/10/13 13:46:32;;;;;;;4.40;2.90;;;;;;;22.28;68.91;96657.84;109182;1272;22483;-81
2023/10/13 13:49:07;;;;;;;10.30;3.50;;;;;;;22.35;68.72;96656.59;109117;1251;40309;-82
2023/10/13 13:51:40;;;;;;;5.50;3.10;;;;;;;22.31;68.17;96654.42;109182;1272;25029;-81
2023/10/13 13:54:15;;;;;;;7.60;3.20;;;;;;;22.31;68.45;96653.73;109156;1265;23766;-80
2023/10/13 13:56:47;;;;;;;4.80;2.90;;;;;;;22.30;68.25;96650.09;109144;1265;30979;-80
2023/10/13 13:59:19;;;;;;;6.20;3.10;;;;;;;22.32;68.46;96648.50;109128;1272;22534;-80
2023/10/13 14:01:52;;;;;;;7.40;3.20;;;;;;;22.30;68.08;96652.87;109120;1266;22518;-80
2023/10/13 14:04:24;;;;;;;7.30;3.50;;;;;;;22.27;68.20;96643.84;109160;1269;23850;-80
2023/10/13 14:06:55;;;;;;;6.70;3.30;;;;;;;22.26;68.30;96642.21;109106;1249;65695;-80
2023/10/13 14:09:36;;;;;;;6.10;3.00;;;;;;;22.20;68.25;96639.52;108965;1272;23442;-80
2023/10/13 14:14:57;;;;;;;9.90;3.00;;;;;;;22.08;68.90;96629.83;108993;1266;25723;-81
2023/10/13 14:17:30;;;;;;;5.20;2.90;;;;;;;22.05;69.11;96629.84;109036;1270;22566;-81
2023/10/13 14:20:09;;;;;;;5.80;3.50;;;;;;;21.97;69.00;96629.41;108987;1265;22535;-81
2023/10/13 14:22:41;;;;;;;11.60;3.70;;;;;;;21.82;68.68;96635.39;109026;1272;23825;-81
2023/10/13 14:25:15;;;;;;;9.20;3.90;;;;;;;21.69;68.69;96630.30;108953;1272;22554;-81
2023/10/13 14:27:47;;;;;;;7.60;3.60;;;;;;;21.56;68.95;96629.77;109118;1272;47492;-81